sensor_id;sensor_type;location;lat;lon;timestamp;P1;durP1;ratioP1;P2;durP2;ratioP2
17836;SDS011;9043;42.620;23.370;2023-05-07T00:00:24;1.60;;;1.60;;
17836;SDS011;9043;42.620;23.370;2023-05-07T00:02:50;1.60;;;1.60;;
17836;SDS011;9043;42.620;23.370;2023-05-07T00:05:17;1.50;;;1.50;;
17836;SDS011;9043;42.620;23.370;2023-05-07T00:07:45;1.60;;;1.60;;
17836;SDS011;9043;42.620;23.370;2023-05-07T00:10:11;1.60;;;1.60;;
17836;SDS011;9043;42.620;23.370;2023-05-07T00:12:38;1.50;;;1.50;;
17836;SDS011;9043;42.620;23.370;2023-05-07T00:15:05;1.63;;;1.63;;
17836;SDS011;9043;42.620;23.370;2023-05-07T00:17:32;1.70;;;1.70;;
17836;SDS011;9043;42.620;23.370;2023-05-07T00:19:59;1.65;;;1.65;;
17836;SDS011;9043;42.620;23.370;2023-05-07T00:22:25;1.67;;;1.67;;
17836;SDS011;9043;42.620;23.370;2023-05-07T00:24:53;1.50;;;1.50;;
17836;SDS011;9043;42.620;23.370;2023-05-07T00:27:20;1.40;;;1.40;;
17836;SDS011;9043;42.620;23.370;2023-05-07T00:29:46;1.50;;;1.50;;
17836;SDS011;9043;42.620;23.370;2023-05-07T00:32:13;1.40;;;1.40;;
17836;SDS011;9043;42.620;23.370;2023-05-07T00:34:39;1.50;;;1.50;;
17836;SDS011;9043;42.620;23.370;2023-05-07T00:37:09;1.92;;;1.83;;
17836;SDS011;9043;42.620;23.370;2023-05-07T00:39:37;1.60;;;1.60;;
17836;SDS011;9043;42.620;23.370;2023-05-07T00:42:04;1.50;;;1.50;;
17836;SDS011;9043;42.620;23.370;2023-05-07T00:44:31;1.40;;;1.40;;
17836;SDS011;9043;42.620;23.370;2023-05-07T00:46:57;1.77;;;1.67;;
17836;SDS011;9043;42.620;23.370;2023-05-07T00:49:25;1.30;;;1.30;;
17836;SDS011;9043;42.620;23.370;2023-05-07T00:51:56;1.20;;;1.20;;
17836;SDS011;9043;42.620;23.370;2023-05-07T00:54:23;1.20;;;1.20;;
17836;SDS011;9043;42.620;23.370;2023-05-07T00:56:49;1.20;;;1.20;;
17836;SDS011;9043;42.620;23.370;2023-05-07T00:59:19;1.20;;;1.20;;
17836;SDS011;9043;42.620;23.370;2023-05-07T01:01:46;1.13;;;1.13;;
17836;SDS011;9043;42.620;23.370;2023-05-07T01:04:12;1.10;;;1.10;;
17836;SDS011;9043;42.620;23.370;2023-05-07T01:06:39;1.10;;;1.10;;
17836;SDS011;9043;42.620;23.370;2023-05-07T01:09:06;1.10;;;1.10;;
17836;SDS011;9043;42.620;23.370;2023-05-07T01:11:34;1.10;;;1.10;;
17836;SDS011;9043;42.620;23.370;2023-05-07T01:14:05;1.10;;;1.10;;
17836;SDS011;9043;42.620;23.370;2023-05-07T01:16:33;1.10;;;1.10;;
17836;SDS011;9043;42.620;23.370;2023-05-07T01:19:00;1.00;;;1.00;;
17836;SDS011;9043;42.620;23.370;2023-05-07T01:21:26;1.00;;;1.00;;
17836;SDS011;9043;42.620;23.370;2023-05-07T01:23:54;1.00;;;1.00;;
17836;SDS011;9043;42.620;23.370;2023-05-07T01:26:21;1.00;;;1.00;;
17836;SDS011;9043;42.620;23.370;2023-05-07T01:28:48;0.90;;;0.90;;
17836;SDS011;9043;42.620;23.370;2023-05-07T01:31:15;1.00;;;1.00;;
17836;SDS011;9043;42.620;23.370;2023-05-07T01:33:43;1.00;;;1.00;;
17836;SDS011;9043;42.620;23.370;2023-05-07T01:36:10;1.00;;;1.00;;
17836;SDS011;9043;42.620;23.370;2023-05-07T01:38:37;0.90;;;0.90;;
17836;SDS011;9043;42.620;23.370;2023-05-07T01:41:07;0.90;;;0.90;;
17836;SDS011;9043;42.620;23.370;2023-05-07T01:43:34;0.80;;;0.80;;
17836;SDS011;9043;42.620;23.370;2023-05-07T01:46:01;0.80;;;0.80;;
17836;SDS011;9043;42.620;23.370;2023-05-07T01:48:28;0.80;;;0.80;;
17836;SDS011;9043;42.620;23.370;2023-05-07T01:50:55;0.90;;;0.90;;
17836;SDS011;9043;42.620;23.370;2023-05-07T01:53:21;0.90;;;0.90;;
17836;SDS011;9043;42.620;23.370;2023-05-07T01:55:48;0.80;;;0.80;;
17836;SDS011;9043;42.620;23.370;2023-05-07T01:58:15;0.80;;;0.80;;
17836;SDS011;9043;42.620;23.370;2023-05-07T02:00:42;0.80;;;0.80;;
17836;SDS011;9043;42.620;23.370;2023-05-07T02:03:08;0.70;;;0.70;;
17836;SDS011;9043;42.620;23.370;2023-05-07T02:05:35;0.80;;;0.80;;
17836;SDS011;9043;42.620;23.370;2023-05-07T02:08:01;0.80;;;0.80;;
17836;SDS011;9043;42.620;23.370;2023-05-07T02:10:28;0.80;;;0.80;;
17836;SDS011;9043;42.620;23.370;2023-05-07T02:12:54;0.70;;;0.70;;
17836;SDS011;9043;42.620;23.370;2023-05-07T02:15:22;0.70;;;0.70;;
17836;SDS011;9043;42.620;23.370;2023-05-07T02:17:58;0.70;;;0.70;;
17836;SDS011;9043;42.620;23.370;2023-05-07T02:20:25;0.80;;;0.80;;
17836;SDS011;9043;42.620;23.370;2023-05-07T02:22:51;0.70;;;0.70;;
17836;SDS011;9043;42.620;23.370;2023-05-07T02:25:18;0.70;;;0.70;;
17836;SDS011;9043;42.620;23.370;2023-05-07T02:27:44;0.80;;;0.80;;
17836;SDS011;9043;42.620;23.370;2023-05-07T02:30:11;0.80;;;0.80;;
17836;SDS011;9043;42.620;23.370;2023-05-07T02:32:39;0.80;;;0.80;;
17836;SDS011;9043;42.620;23.370;2023-05-07T02:35:05;0.90;;;0.90;;
17836;SDS011;9043;42.620;23.370;2023-05-07T02:37:32;0.70;;;0.70;;
17836;SDS011;9043;42.620;23.370;2023-05-07T02:39:58;0.80;;;0.80;;
17836;SDS011;9043;42.620;23.370;2023-05-07T02:42:25;0.70;;;0.70;;
17836;SDS011;9043;42.620;23.370;2023-05-07T02:44:51;0.70;;;0.70;;
17836;SDS011;9043;42.620;23.370;2023-05-07T02:47:18;0.70;;;0.70;;
17836;SDS011;9043;42.620;23.370;2023-05-07T02:49:46;0.80;;;0.80;;
17836;SDS011;9043;42.620;23.370;2023-05-07T02:52:12;0.80;;;0.80;;
17836;SDS011;9043;42.620;23.370;2023-05-07T02:54:39;0.63;;;0.63;;
17836;SDS011;9043;42.620;23.370;2023-05-07T02:57:05;0.80;;;0.80;;
17836;SDS011;9043;42.620;23.370;2023-05-07T02:59:32;0.60;;;0.60;;
17836;SDS011;9043;42.620;23.370;2023-05-07T03:01:58;0.57;;;0.57;;
17836;SDS011;9043;42.620;23.370;2023-05-07T03:04:25;0.65;;;0.65;;
17836;SDS011;9043;42.620;23.370;2023-05-07T03:06:52;0.70;;;0.70;;
17836;SDS011;9043;42.620;23.370;2023-05-07T03:09:19;0.60;;;0.60;;
17836;SDS011;9043;42.620;23.370;2023-05-07T03:11:46;0.70;;;0.70;;
17836;SDS011;9043;42.620;23.370;2023-05-07T03:14:12;0.70;;;0.70;;
17836;SDS011;9043;42.620;23.370;2023-05-07T03:16:39;0.70;;;0.70;;
17836;SDS011;9043;42.620;23.370;2023-05-07T03:19:05;0.70;;;0.70;;
17836;SDS011;9043;42.620;23.370;2023-05-07T03:21:32;0.60;;;0.60;;
17836;SDS011;9043;42.620;23.370;2023-05-07T03:24:00;0.70;;;0.70;;
17836;SDS011;9043;42.620;23.370;2023-05-07T03:26:27;0.70;;;0.70;;
17836;SDS011;9043;42.620;23.370;2023-05-07T03:28:54;0.70;;;0.70;;
17836;SDS011;9043;42.620;23.370;2023-05-07T03:31:20;0.80;;;0.80;;
17836;SDS011;9043;42.620;23.370;2023-05-07T03:33:50;0.70;;;0.70;;
17836;SDS011;9043;42.620;23.370;2023-05-07T03:36:17;0.50;;;0.50;;
17836;SDS011;9043;42.620;23.370;2023-05-07T03:38:43;0.60;;;0.60;;
17836;SDS011;9043;42.620;23.370;2023-05-07T03:41:11;0.63;;;0.63;;
17836;SDS011;9043;42.620;23.370;2023-05-07T03:43:37;0.70;;;0.70;;
17836;SDS011;9043;42.620;23.370;2023-05-07T03:46:04;0.70;;;0.70;;
17836;SDS011;9043;42.620;23.370;2023-05-07T03:48:30;0.70;;;0.70;;
17836;SDS011;9043;42.620;23.370;2023-05-07T03:50:57;1.42;;;1.42;;
17836;SDS011;9043;42.620;23.370;2023-05-07T03:53:23;0.60;;;0.60;;
17836;SDS011;9043;42.620;23.370;2023-05-07T03:55:50;0.60;;;0.60;;
17836;SDS011;9043;42.620;23.370;2023-05-07T03:58:18;0.63;;;0.63;;
17836;SDS011;9043;42.620;23.370;2023-05-07T04:00:44;0.65;;;0.65;;
17836;SDS011;9043;42.620;23.370;2023-05-07T04:03:11;0.70;;;0.70;;
17836;SDS011;9043;42.620;23.370;2023-05-07T04:05:37;0.70;;;0.70;;
17836;SDS011;9043;42.620;23.370;2023-05-07T04:08:04;0.70;;;0.70;;
17836;SDS011;9043;42.620;23.370;2023-05-07T04:10:30;0.70;;;0.70;;
17836;SDS011;9043;42.620;23.370;2023-05-07T04:12:57;0.63;;;0.63;;
17836;SDS011;9043;42.620;23.370;2023-05-07T04:15:24;0.80;;;0.80;;
17836;SDS011;9043;42.620;23.370;2023-05-07T04:17:51;0.80;;;0.80;;
17836;SDS011;9043;42.620;23.370;2023-05-07T04:20:17;0.80;;;0.80;;
17836;SDS011;9043;42.620;23.370;2023-05-07T04:22:47;0.70;;;0.70;;
17836;SDS011;9043;42.620;23.370;2023-05-07T04:25:15;0.70;;;0.70;;
17836;SDS011;9043;42.620;23.370;2023-05-07T04:27:42;0.75;;;0.75;;
17836;SDS011;9043;42.620;23.370;2023-05-07T04:30:08;0.70;;;0.70;;
17836;SDS011;9043;42.620;23.370;2023-05-07T04:32:36;0.60;;;0.60;;
17836;SDS011;9043;42.620;23.370;2023-05-07T04:35:03;0.60;;;0.60;;
17836;SDS011;9043;42.620;23.370;2023-05-07T04:37:31;0.60;;;0.60;;
17836;SDS011;9043;42.620;23.370;2023-05-07T04:39:57;0.73;;;0.73;;
17836;SDS011;9043;42.620;23.370;2023-05-07T04:42:24;0.60;;;0.60;;
17836;SDS011;9043;42.620;23.370;2023-05-07T04:44:52;0.63;;;0.63;;
17836;SDS011;9043;42.620;23.370;2023-05-07T04:47:18;0.70;;;0.70;;
17836;SDS011;9043;42.620;23.370;2023-05-07T04:49:49;0.80;;;0.80;;
17836;SDS011;9043;42.620;23.370;2023-05-07T04:52:15;0.70;;;0.70;;
17836;SDS011;9043;42.620;23.370;2023-05-07T04:54:42;0.70;;;0.70;;
17836;SDS011;9043;42.620;23.370;2023-05-07T04:57:09;1.02;;;1.02;;
17836;SDS011;9043;42.620;23.370;2023-05-07T04:59:35;0.80;;;0.80;;
17836;SDS011;9043;42.620;23.370;2023-05-07T05:02:01;0.85;;;0.85;;
17836;SDS011;9043;42.620;23.370;2023-05-07T05:04:29;0.90;;;0.90;;
17836;SDS011;9043;42.620;23.370;2023-05-07T05:06:57;0.80;;;0.80;;
17836;SDS011;9043;42.620;23.370;2023-05-07T05:09:24;0.80;;;0.80;;
17836;SDS011;9043;42.620;23.370;2023-05-07T05:11:50;0.80;;;0.80;;
17836;SDS011;9043;42.620;23.370;2023-05-07T05:14:16;0.90;;;0.90;;
17836;SDS011;9043;42.620;23.370;2023-05-07T05:16:43;0.80;;;0.80;;
17836;SDS011;9043;42.620;23.370;2023-05-07T05:19:09;0.80;;;0.80;;
17836;SDS011;9043;42.620;23.370;2023-05-07T05:21:36;0.90;;;0.90;;
17836;SDS011;9043;42.620;23.370;2023-05-07T05:24:04;0.90;;;0.90;;
17836;SDS011;9043;42.620;23.370;2023-05-07T05:26:30;1.00;;;1.00;;
17836;SDS011;9043;42.620;23.370;2023-05-07T05:28:57;0.98;;;0.98;;
17836;SDS011;9043;42.620;23.370;2023-05-07T05:31:23;0.90;;;0.90;;
17836;SDS011;9043;42.620;23.370;2023-05-07T05:33:50;0.90;;;0.90;;
17836;SDS011;9043;42.620;23.370;2023-05-07T05:36:16;1.20;;;1.20;;
17836;SDS011;9043;42.620;23.370;2023-05-07T05:38:42;1.10;;;1.10;;
17836;SDS011;9043;42.620;23.370;2023-05-07T05:41:15;1.10;;;1.10;;
17836;SDS011;9043;42.620;23.370;2023-05-07T05:43:42;1.10;;;1.10;;
17836;SDS011;9043;42.620;23.370;2023-05-07T05:46:08;1.20;;;1.20;;
17836;SDS011;9043;42.620;23.370;2023-05-07T05:48:36;1.30;;;1.30;;
17836;SDS011;9043;42.620;23.370;2023-05-07T05:51:03;1.35;;;1.35;;
17836;SDS011;9043;42.620;23.370;2023-05-07T05:53:29;1.33;;;1.33;;
17836;SDS011;9043;42.620;23.370;2023-05-07T05:55:56;1.30;;;1.30;;
17836;SDS011;9043;42.620;23.370;2023-05-07T05:58:24;1.40;;;1.40;;
17836;SDS011;9043;42.620;23.370;2023-05-07T06:00:50;1.40;;;1.40;;
17836;SDS011;9043;42.620;23.370;2023-05-07T06:03:18;1.40;;;1.40;;
17836;SDS011;9043;42.620;23.370;2023-05-07T06:05:44;1.20;;;1.20;;
17836;SDS011;9043;42.620;23.370;2023-05-07T06:08:11;1.30;;;1.30;;
17836;SDS011;9043;42.620;23.370;2023-05-07T06:10:37;1.30;;;1.30;;
17836;SDS011;9043;42.620;23.370;2023-05-07T06:13:04;1.40;;;1.40;;
17836;SDS011;9043;42.620;23.370;2023-05-07T06:15:31;1.40;;;1.40;;
17836;SDS011;9043;42.620;23.370;2023-05-07T06:17:58;1.40;;;1.40;;
17836;SDS011;9043;42.620;23.370;2023-05-07T06:20:24;1.50;;;1.50;;
17836;SDS011;9043;42.620;23.370;2023-05-07T06:22:51;1.45;;;1.45;;
17836;SDS011;9043;42.620;23.370;2023-05-07T06:25:20;1.50;;;1.50;;
17836;SDS011;9043;42.620;23.370;2023-05-07T06:27:46;1.60;;;1.60;;
17836;SDS011;9043;42.620;23.370;2023-05-07T06:30:13;1.58;;;1.58;;
17836;SDS011;9043;42.620;23.370;2023-05-07T06:32:41;1.60;;;1.60;;
17836;SDS011;9043;42.620;23.370;2023-05-07T06:35:08;1.60;;;1.60;;
17836;SDS011;9043;42.620;23.370;2023-05-07T06:37:38;1.60;;;1.60;;
17836;SDS011;9043;42.620;23.370;2023-05-07T06:40:05;1.60;;;1.60;;
17836;SDS011;9043;42.620;23.370;2023-05-07T06:42:32;1.75;;;1.75;;
17836;SDS011;9043;42.620;23.370;2023-05-07T06:44:58;1.88;;;1.88;;
17836;SDS011;9043;42.620;23.370;2023-05-07T06:47:25;1.90;;;1.90;;
17836;SDS011;9043;42.620;23.370;2023-05-07T06:49:52;1.95;;;1.90;;
17836;SDS011;9043;42.620;23.370;2023-05-07T06:52:19;1.90;;;1.90;;
17836;SDS011;9043;42.620;23.370;2023-05-07T06:54:45;2.10;;;2.00;;
17836;SDS011;9043;42.620;23.370;2023-05-07T06:57:12;2.10;;;2.00;;
17836;SDS011;9043;42.620;23.370;2023-05-07T06:59:38;2.20;;;2.10;;
17836;SDS011;9043;42.620;23.370;2023-05-07T07:02:05;2.20;;;2.10;;
17836;SDS011;9043;42.620;23.370;2023-05-07T07:04:32;2.20;;;2.10;;
17836;SDS011;9043;42.620;23.370;2023-05-07T07:06:59;2.17;;;2.08;;
17836;SDS011;9043;42.620;23.370;2023-05-07T07:09:26;2.20;;;2.10;;
17836;SDS011;9043;42.620;23.370;2023-05-07T07:11:52;2.30;;;2.20;;
17836;SDS011;9043;42.620;23.370;2023-05-07T07:14:19;2.30;;;2.20;;
17836;SDS011;9043;42.620;23.370;2023-05-07T07:16:46;2.40;;;2.30;;
17836;SDS011;9043;42.620;23.370;2023-05-07T07:19:12;2.38;;;2.28;;
17836;SDS011;9043;42.620;23.370;2023-05-07T07:21:40;2.40;;;2.30;;
17836;SDS011;9043;42.620;23.370;2023-05-07T07:24:08;2.33;;;2.22;;
17836;SDS011;9043;42.620;23.370;2023-05-07T07:26:34;2.40;;;2.30;;
17836;SDS011;9043;42.620;23.370;2023-05-07T07:29:00;2.45;;;2.35;;
17836;SDS011;9043;42.620;23.370;2023-05-07T07:31:27;2.50;;;2.40;;
17836;SDS011;9043;42.620;23.370;2023-05-07T07:33:53;2.40;;;2.30;;
17836;SDS011;9043;42.620;23.370;2023-05-07T07:36:20;2.60;;;2.50;;
17836;SDS011;9043;42.620;23.370;2023-05-07T07:38:46;2.58;;;2.47;;
17836;SDS011;9043;42.620;23.370;2023-05-07T07:41:14;2.80;;;2.70;;
17836;SDS011;9043;42.620;23.370;2023-05-07T07:43:40;2.90;;;2.80;;
17836;SDS011;9043;42.620;23.370;2023-05-07T07:46:07;2.83;;;2.72;;
17836;SDS011;9043;42.620;23.370;2023-05-07T07:48:33;3.22;;;3.13;;
17836;SDS011;9043;42.620;23.370;2023-05-07T07:51:00;3.05;;;2.95;;
17836;SDS011;9043;42.620;23.370;2023-05-07T07:53:26;3.22;;;3.13;;
17836;SDS011;9043;42.620;23.370;2023-05-07T07:55:53;3.20;;;3.10;;
17836;SDS011;9043;42.620;23.370;2023-05-07T07:58:21;3.35;;;3.25;;
17836;SDS011;9043;42.620;23.370;2023-05-07T08:00:48;3.20;;;3.10;;
17836;SDS011;9043;42.620;23.370;2023-05-07T08:03:17;3.17;;;3.08;;
17836;SDS011;9043;42.620;23.370;2023-05-07T08:05:44;3.20;;;3.10;;
17836;SDS011;9043;42.620;23.370;2023-05-07T08:08:11;3.40;;;3.30;;
17836;SDS011;9043;42.620;23.370;2023-05-07T08:10:37;3.40;;;3.30;;
17836;SDS011;9043;42.620;23.370;2023-05-07T08:13:04;3.50;;;3.40;;
17836;SDS011;9043;42.620;23.370;2023-05-07T08:15:32;3.40;;;3.30;;
17836;SDS011;9043;42.620;23.370;2023-05-07T08:17:58;3.30;;;3.20;;
17836;SDS011;9043;42.620;23.370;2023-05-07T08:20:26;3.25;;;3.15;;
17836;SDS011;9043;42.620;23.370;2023-05-07T08:22:52;3.40;;;3.30;;
17836;SDS011;9043;42.620;23.370;2023-05-07T08:25:18;3.38;;;3.28;;
17836;SDS011;9043;42.620;23.370;2023-05-07T08:27:45;3.20;;;3.10;;
17836;SDS011;9043;42.620;23.370;2023-05-07T08:30:12;3.70;;;3.60;;
17836;SDS011;9043;42.620;23.370;2023-05-07T08:32:40;3.47;;;3.38;;
17836;SDS011;9043;42.620;23.370;2023-05-07T08:35:07;3.50;;;3.40;;
17836;SDS011;9043;42.620;23.370;2023-05-07T08:37:33;3.58;;;3.47;;
17836;SDS011;9043;42.620;23.370;2023-05-07T08:40:00;3.70;;;3.60;;
17836;SDS011;9043;42.620;23.370;2023-05-07T08:42:26;3.67;;;3.58;;
17836;SDS011;9043;42.620;23.370;2023-05-07T08:44:54;3.60;;;3.50;;
17836;SDS011;9043;42.620;23.370;2023-05-07T08:47:25;3.60;;;3.50;;
17836;SDS011;9043;42.620;23.370;2023-05-07T08:49:55;3.70;;;3.60;;
17836;SDS011;9043;42.620;23.370;2023-05-07T08:52:21;3.80;;;3.70;;
17836;SDS011;9043;42.620;23.370;2023-05-07T08:54:48;3.75;;;3.65;;
17836;SDS011;9043;42.620;23.370;2023-05-07T08:57:14;3.70;;;3.60;;
17836;SDS011;9043;42.620;23.370;2023-05-07T08:59:41;3.63;;;3.53;;
17836;SDS011;9043;42.620;23.370;2023-05-07T09:02:07;3.70;;;3.60;;
17836;SDS011;9043;42.620;23.370;2023-05-07T09:04:35;3.50;;;3.40;;
17836;SDS011;9043;42.620;23.370;2023-05-07T09:07:03;3.50;;;3.40;;
17836;SDS011;9043;42.620;23.370;2023-05-07T09:09:32;3.50;;;3.40;;
17836;SDS011;9043;42.620;23.370;2023-05-07T09:11:58;2.78;;;2.67;;
17836;SDS011;9043;42.620;23.370;2023-05-07T09:14:25;5.60;;;5.40;;
17836;SDS011;9043;42.620;23.370;2023-05-07T09:16:52;3.97;;;3.88;;
17836;SDS011;9043;42.620;23.370;2023-05-07T09:19:21;3.05;;;2.95;;
17836;SDS011;9043;42.620;23.370;2023-05-07T09:21:48;0.10;;;0.10;;
17836;SDS011;9043;42.620;23.370;2023-05-07T09:24:16;0.20;;;0.20;;
17836;SDS011;9043;42.620;23.370;2023-05-07T09:26:42;12.70;;;12.10;;
17836;SDS011;9043;42.620;23.370;2023-05-07T09:29:09;11.07;;;10.57;;
17836;SDS011;9043;42.620;23.370;2023-05-07T09:31:36;5.70;;;5.50;;
17836;SDS011;9043;42.620;23.370;2023-05-07T09:34:04;13.90;;;13.20;;
17836;SDS011;9043;42.620;23.370;2023-05-07T09:36:31;10.13;;;9.63;;
17836;SDS011;9043;42.620;23.370;2023-05-07T09:38:58;12.82;;;12.23;;
17836;SDS011;9043;42.620;23.370;2023-05-07T09:41:28;0.10;;;0.10;;
17836;SDS011;9043;42.620;23.370;2023-05-07T09:43:56;3.85;;;3.65;;
17836;SDS011;9043;42.620;23.370;2023-05-07T09:46:27;0.20;;;0.20;;
17836;SDS011;9043;42.620;23.370;2023-05-07T09:48:54;0.20;;;0.20;;
17836;SDS011;9043;42.620;23.370;2023-05-07T09:51:24;0.20;;;0.20;;
17836;SDS011;9043;42.620;23.370;2023-05-07T09:53:52;0.20;;;0.20;;
17836;SDS011;9043;42.620;23.370;2023-05-07T09:56:19;0.20;;;0.20;;
17836;SDS011;9043;42.620;23.370;2023-05-07T09:58:47;3.70;;;3.60;;
17836;SDS011;9043;42.620;23.370;2023-05-07T10:01:15;4.00;;;3.90;;
17836;SDS011;9043;42.620;23.370;2023-05-07T10:03:44;4.20;;;4.10;;
17836;SDS011;9043;42.620;23.370;2023-05-07T10:06:10;4.00;;;3.90;;
17836;SDS011;9043;42.620;23.370;2023-05-07T10:08:38;4.05;;;3.95;;
17836;SDS011;9043;42.620;23.370;2023-05-07T10:11:04;4.00;;;3.90;;
17836;SDS011;9043;42.620;23.370;2023-05-07T10:13:31;4.10;;;4.00;;
17836;SDS011;9043;42.620;23.370;2023-05-07T10:15:59;4.00;;;3.90;;
17836;SDS011;9043;42.620;23.370;2023-05-07T10:18:26;4.00;;;3.90;;
17836;SDS011;9043;42.620;23.370;2023-05-07T10:20:54;4.00;;;3.90;;
17836;SDS011;9043;42.620;23.370;2023-05-07T10:23:23;4.20;;;4.10;;
17836;SDS011;9043;42.620;23.370;2023-05-07T10:25:50;4.47;;;4.38;;
17836;SDS011;9043;42.620;23.370;2023-05-07T10:28:17;4.40;;;4.30;;
17836;SDS011;9043;42.620;23.370;2023-05-07T10:30:48;4.30;;;4.20;;
17836;SDS011;9043;42.620;23.370;2023-05-07T10:33:21;4.22;;;4.13;;
17836;SDS011;9043;42.620;23.370;2023-05-07T10:35:48;4.40;;;4.30;;
17836;SDS011;9043;42.620;23.370;2023-05-07T10:38:15;0.30;;;0.30;;
17836;SDS011;9043;42.620;23.370;2023-05-07T10:40:41;0.30;;;0.30;;
17836;SDS011;9043;42.620;23.370;2023-05-07T10:43:08;0.20;;;0.20;;
17836;SDS011;9043;42.620;23.370;2023-05-07T10:45:35;0.20;;;0.20;;
17836;SDS011;9043;42.620;23.370;2023-05-07T10:48:08;0.30;;;0.30;;
17836;SDS011;9043;42.620;23.370;2023-05-07T10:50:37;0.40;;;0.40;;
17836;SDS011;9043;42.620;23.370;2023-05-07T10:53:23;0.40;;;0.40;;
17836;SDS011;9043;42.620;23.370;2023-05-07T10:58:35;0.30;;;0.30;;
17836;SDS011;9043;42.620;23.370;2023-05-07T11:01:02;0.30;;;0.30;;
17836;SDS011;9043;42.620;23.370;2023-05-07T11:03:29;0.30;;;0.30;;
17836;SDS011;9043;42.620;23.370;2023-05-07T11:06:10;0.25;;;0.25;;
17836;SDS011;9043;42.620;23.370;2023-05-07T11:08:52;0.30;;;0.30;;
17836;SDS011;9043;42.620;23.370;2023-05-07T11:11:19;0.30;;;0.30;;
17836;SDS011;9043;42.620;23.370;2023-05-07T11:13:47;0.28;;;0.28;;
17836;SDS011;9043;42.620;23.370;2023-05-07T11:16:17;0.28;;;0.28;;
17836;SDS011;9043;42.620;23.370;2023-05-07T11:18:47;0.20;;;0.20;;
17836;SDS011;9043;42.620;23.370;2023-05-07T11:21:27;0.30;;;0.30;;
17836;SDS011;9043;42.620;23.370;2023-05-07T11:23:57;0.20;;;0.20;;
17836;SDS011;9043;42.620;23.370;2023-05-07T11:26:24;0.20;;;0.20;;
17836;SDS011;9043;42.620;23.370;2023-05-07T11:28:51;0.30;;;0.30;;
17836;SDS011;9043;42.620;23.370;2023-05-07T11:31:20;0.40;;;0.40;;
17836;SDS011;9043;42.620;23.370;2023-05-07T11:33:47;0.40;;;0.40;;
17836;SDS011;9043;42.620;23.370;2023-05-07T11:36:13;0.40;;;0.40;;
17836;SDS011;9043;42.620;23.370;2023-05-07T11:38:41;0.40;;;0.40;;
17836;SDS011;9043;42.620;23.370;2023-05-07T11:41:08;0.40;;;0.40;;
17836;SDS011;9043;42.620;23.370;2023-05-07T11:43:35;0.20;;;0.20;;
17836;SDS011;9043;42.620;23.370;2023-05-07T11:46:05;0.20;;;0.20;;
17836;SDS011;9043;42.620;23.370;2023-05-07T11:48:31;0.10;;;0.10;;
17836;SDS011;9043;42.620;23.370;2023-05-07T11:51:00;0.10;;;0.10;;
17836;SDS011;9043;42.620;23.370;2023-05-07T11:53:35;0.10;;;0.10;;
17836;SDS011;9043;42.620;23.370;2023-05-07T11:56:09;0.70;;;0.70;;
17836;SDS011;9043;42.620;23.370;2023-05-07T11:58:36;0.80;;;0.80;;
17836;SDS011;9043;42.620;23.370;2023-05-07T12:01:03;0.80;;;0.80;;
17836;SDS011;9043;42.620;23.370;2023-05-07T12:03:29;0.80;;;0.80;;
17836;SDS011;9043;42.620;23.370;2023-05-07T12:05:56;0.90;;;0.90;;
17836;SDS011;9043;42.620;23.370;2023-05-07T12:08:22;0.98;;;0.98;;
17836;SDS011;9043;42.620;23.370;2023-05-07T12:10:51;0.90;;;0.90;;
17836;SDS011;9043;42.620;23.370;2023-05-07T12:13:19;1.00;;;1.00;;
17836;SDS011;9043;42.620;23.370;2023-05-07T12:15:48;0.90;;;0.90;;
17836;SDS011;9043;42.620;23.370;2023-05-07T12:18:16;1.00;;;1.00;;
17836;SDS011;9043;42.620;23.370;2023-05-07T12:20:42;5.40;;;5.20;;
17836;SDS011;9043;42.620;23.370;2023-05-07T12:23:10;5.00;;;4.80;;
17836;SDS011;9043;42.620;23.370;2023-05-07T12:25:37;5.00;;;4.80;;
17836;SDS011;9043;42.620;23.370;2023-05-07T12:28:04;5.25;;;5.05;;
17836;SDS011;9043;42.620;23.370;2023-05-07T12:30:32;5.40;;;5.20;;
17836;SDS011;9043;42.620;23.370;2023-05-07T12:33:02;5.00;;;4.80;;
17836;SDS011;9043;42.620;23.370;2023-05-07T12:35:29;5.00;;;4.80;;
17836;SDS011;9043;42.620;23.370;2023-05-07T12:37:59;5.05;;;4.85;;
17836;SDS011;9043;42.620;23.370;2023-05-07T12:40:35;5.10;;;4.90;;
17836;SDS011;9043;42.620;23.370;2023-05-07T12:43:01;5.10;;;4.90;;
17836;SDS011;9043;42.620;23.370;2023-05-07T12:45:28;5.10;;;4.90;;
17836;SDS011;9043;42.620;23.370;2023-05-07T12:47:56;4.70;;;4.60;;
17836;SDS011;9043;42.620;23.370;2023-05-07T12:50:22;4.65;;;4.55;;
17836;SDS011;9043;42.620;23.370;2023-05-07T12:52:49;4.93;;;4.72;;
17836;SDS011;9043;42.620;23.370;2023-05-07T12:55:15;4.60;;;4.50;;
17836;SDS011;9043;42.620;23.370;2023-05-07T12:57:42;4.63;;;4.53;;
17836;SDS011;9043;42.620;23.370;2023-05-07T13:00:09;4.53;;;4.43;;
17836;SDS011;9043;42.620;23.370;2023-05-07T13:02:37;4.60;;;4.50;;
17836;SDS011;9043;42.620;23.370;2023-05-07T13:05:06;4.55;;;4.45;;
17836;SDS011;9043;42.620;23.370;2023-05-07T13:07:32;4.63;;;4.53;;
17836;SDS011;9043;42.620;23.370;2023-05-07T13:09:59;4.30;;;4.20;;
17836;SDS011;9043;42.620;23.370;2023-05-07T13:12:25;4.75;;;4.63;;
17836;SDS011;9043;42.620;23.370;2023-05-07T13:14:51;4.70;;;4.60;;
17836;SDS011;9043;42.620;23.370;2023-05-07T13:17:18;4.70;;;4.60;;
17836;SDS011;9043;42.620;23.370;2023-05-07T13:19:44;4.50;;;4.40;;
17836;SDS011;9043;42.620;23.370;2023-05-07T13:22:12;4.43;;;4.32;;
17836;SDS011;9043;42.620;23.370;2023-05-07T13:24:38;4.60;;;4.50;;
17836;SDS011;9043;42.620;23.370;2023-05-07T13:27:06;4.50;;;4.40;;
17836;SDS011;9043;42.620;23.370;2023-05-07T13:29:33;4.40;;;4.30;;
17836;SDS011;9043;42.620;23.370;2023-05-07T13:31:59;4.28;;;4.18;;
17836;SDS011;9043;42.620;23.370;2023-05-07T13:34:26;4.70;;;4.60;;
17836;SDS011;9043;42.620;23.370;2023-05-07T13:36:52;4.60;;;4.50;;
17836;SDS011;9043;42.620;23.370;2023-05-07T13:39:20;4.50;;;4.40;;
17836;SDS011;9043;42.620;23.370;2023-05-07T13:41:46;4.60;;;4.50;;
17836;SDS011;9043;42.620;23.370;2023-05-07T13:44:13;4.30;;;4.20;;
17836;SDS011;9043;42.620;23.370;2023-05-07T13:46:39;4.50;;;4.40;;
17836;SDS011;9043;42.620;23.370;2023-05-07T13:49:05;4.40;;;4.30;;
17836;SDS011;9043;42.620;23.370;2023-05-07T13:51:32;4.50;;;4.40;;
17836;SDS011;9043;42.620;23.370;2023-05-07T13:53:58;4.80;;;4.60;;
17836;SDS011;9043;42.620;23.370;2023-05-07T13:56:26;4.30;;;4.20;;
17836;SDS011;9043;42.620;23.370;2023-05-07T13:58:53;4.53;;;4.43;;
17836;SDS011;9043;42.620;23.370;2023-05-07T14:01:19;4.85;;;4.68;;
17836;SDS011;9043;42.620;23.370;2023-05-07T14:03:46;4.60;;;4.50;;
17836;SDS011;9043;42.620;23.370;2023-05-07T14:06:12;4.63;;;4.53;;
17836;SDS011;9043;42.620;23.370;2023-05-07T14:08:38;4.57;;;4.47;;
17836;SDS011;9043;42.620;23.370;2023-05-07T14:11:05;4.72;;;4.60;;
17836;SDS011;9043;42.620;23.370;2023-05-07T14:13:33;4.70;;;4.60;;
17836;SDS011;9043;42.620;23.370;2023-05-07T14:16:00;4.53;;;4.43;;
17836;SDS011;9043;42.620;23.370;2023-05-07T14:18:26;4.60;;;4.50;;
17836;SDS011;9043;42.620;23.370;2023-05-07T14:20:54;4.88;;;4.70;;
17836;SDS011;9043;42.620;23.370;2023-05-07T14:23:20;4.90;;;4.70;;
17836;SDS011;9043;42.620;23.370;2023-05-07T14:25:51;4.97;;;4.78;;
17836;SDS011;9043;42.620;23.370;2023-05-07T14:28:18;4.90;;;4.70;;
17836;SDS011;9043;42.620;23.370;2023-05-07T14:30:46;4.93;;;4.72;;
17836;SDS011;9043;42.620;23.370;2023-05-07T14:33:12;4.70;;;4.60;;
17836;SDS011;9043;42.620;23.370;2023-05-07T14:35:39;4.82;;;4.70;;
17836;SDS011;9043;42.620;23.370;2023-05-07T14:38:05;4.90;;;4.70;;
17836;SDS011;9043;42.620;23.370;2023-05-07T14:40:32;4.60;;;4.50;;
17836;SDS011;9043;42.620;23.370;2023-05-07T14:42:58;4.80;;;4.70;;
17836;SDS011;9043;42.620;23.370;2023-05-07T14:45:25;4.90;;;4.70;;
17836;SDS011;9043;42.620;23.370;2023-05-07T14:47:53;5.00;;;4.80;;
17836;SDS011;9043;42.620;23.370;2023-05-07T14:50:19;4.90;;;4.70;;